Time,TemperatureF,DewpointF,PressureIn,WindDirection,WindDirectionDegrees,WindSpeedMPH,WindSpeedGustMPH,Humidity,HourlyPrecipIn,Conditions,Clouds,dailyrainin,SoftwareType,DateUTC
2013-03-19 00:03:00,48.0,45.0,-100.00,WNW,297,6.0,14.0,91,0.00,,,-99.99,,2013-03-19 04:03:00,
2013-03-19 00:13:00,47.0,45.0,-100.00,SW,227,6.0,14.0,93,6.22,,,-99.99,,2013-03-19 04:13:00,
2013-03-19 00:23:00,45.0,43.0,-100.00,WNW,302,6.0,14.0,93,0.00,,,-99.99,,2013-03-19 04:23:00,
2013-03-19 00:34:00,45.0,41.0,-100.00,West,276,6.0,14.0,93,4.53,,,-99.99,,2013-03-19 04:34:00,
2013-03-19 00:43:00,44.0,41.0,-100.00,SW,232,8.0,14.0,93,4.53,,,-99.99,,2013-03-19 04:43:00,
2013-03-19 00:52:00,44.0,41.0,-100.00,WNW,286,5.0,14.0,93,4.53,,,-99.99,,2013-03-19 04:52:00,
2013-03-19 01:02:00,44.0,41.0,-100.00,West,271,4.0,14.0,93,0.00,,,-99.99,,2013-03-19 05:02:00,
2013-03-19 01:12:00,43.0,39.0,-100.00,WNW,296,4.0,14.0,91,0.00,,,-99.99,,2013-03-19 05:12:00,
2013-03-19 01:22:00,41.0,37.0,-100.00,NW,309,7.0,14.0,90,0.00,,,-99.99,,2013-03-19 05:22:00,
2013-03-19 01:32:00,41.0,37.0,-100.00,NW,312,4.0,14.0,89,0.00,,,-99.99,,2013-03-19 05:32:00,
2013-03-19 01:43:00,41.0,36.0,-100.00,WSW,245,7.0,14.0,85,0.00,,,-99.99,,2013-03-19 05:43:00,
2013-03-19 01:52:00,41.0,36.0,-100.00,SW,234,6.0,14.0,84,0.00,,,-99.99,,2013-03-19 05:52:00,
2013-03-19 02:02:00,40.0,34.0,-100.00,WSW,249,4.0,14.0,82,0.00,,,-99.99,,2013-03-19 06:02:00,
2013-03-19 02:12:00,39.0,34.0,-100.00,North,358,7.0,14.0,82,0.00,,,-99.99,,2013-03-19 06:12:00,
2013-03-19 02:22:00,40.0,36.0,-100.00,NNW,343,4.0,14.0,85,0.00,,,-99.99,,2013-03-19 06:22:00,
2013-03-19 02:32:00,40.0,34.0,-100.00,NNW,338,4.0,14.0,84,0.00,,,-99.99,,2013-03-19 06:32:00,
2013-03-19 02:42:00,40.0,34.0,-100.00,WNW,296,4.0,14.0,82,4.53,,,-99.99,,2013-03-19 06:42:00,
2013-03-19 02:52:00,38.0,32.0,-100.00,WSW,249,2.0,14.0,81,0.00,,,-99.99,,2013-03-19 06:52:00,
2013-03-19 03:02:00,38.0,32.0,-100.00,NW,309,2.0,14.0,81,0.00,,,-99.99,,2013-03-19 07:02:00,
2013-03-19 03:12:00,38.0,32.0,-100.00,NW,321,2.0,14.0,81,0.00,,,-99.99,,2013-03-19 07:12:00,
2013-03-19 03:22:00,38.0,32.0,-100.00,West,280,3.0,14.0,75,0.00,,,-99.99,,2013-03-19 07:22:00,
2013-03-19 03:32:00,38.0,32.0,-100.00,NNW,327,1.0,14.0,75,0.00,,,-99.99,,2013-03-19 07:32:00,
2013-03-19 03:42:00,38.0,32.0,-100.00,SW,235,2.0,14.0,75,0.00,,,-99.99,,2013-03-19 07:42:00,
2013-03-19 03:52:00,40.0,32.0,-100.00,West,273,3.0,14.0,76,0.00,,,-99.99,,2013-03-19 07:52:00,
2013-03-19 04:03:00,39.0,32.0,-100.00,West,261,2.0,14.0,81,0.00,,,-99.99,,2013-03-19 08:03:00,
2013-03-19 04:12:00,39.0,34.0,-100.00,West,269,3.0,14.0,84,0.00,,,-99.99,,2013-03-19 08:12:00,
2013-03-19 04:22:00,39.0,34.0,-100.00,WSW,241,3.0,14.0,85,0.00,,,-99.99,,2013-03-19 08:22:00,
2013-03-19 04:32:00,36.0,32.0,-100.00,West,278,5.0,14.0,85,0.00,,,-99.99,,2013-03-19 08:32:00,
2013-03-19 04:42:00,36.0,32.0,-100.00,SSW,213,5.0,14.0,85,0.00,,,-99.99,,2013-03-19 08:42:00,
2013-03-19 04:52:00,36.0,32.0,-100.00,WNW,299,6.0,14.0,84,0.00,,,-99.99,,2013-03-19 08:52:00,
2013-03-19 05:03:00,36.0,32.0,-100.00,WSW,237,4.0,4.0,82,0.00,,,-99.99,,2013-03-19 09:03:00,
2013-03-19 05:12:00,37.0,30.0,-100.00,West,265,6.0,10.0,76,0.00,,,-99.99,,2013-03-19 09:12:00,
2013-03-19 05:23:00,36.0,30.0,-100.00,WSW,249,3.0,10.0,75,0.00,,,-99.99,,2013-03-19 09:23:00,
2013-03-19 05:33:00,37.0,30.0,-100.00,WSW,255,2.0,10.0,71,0.00,,,-99.99,,2013-03-19 09:33:00,
2013-03-19 05:43:00,37.0,30.0,-100.00,West,276,2.0,10.0,71,0.00,,,-99.99,,2013-03-19 09:43:00,
2013-03-19 05:53:00,37.0,30.0,-100.00,West,259,2.0,10.0,71,0.00,,,-99.99,,2013-03-19 09:53:00,
2013-03-19 06:04:00,37.0,28.0,-100.00,SW,232,1.0,10.0,71,0.00,,,-99.99,,2013-03-19 10:04:00,
2013-03-19 06:13:00,37.0,28.0,-100.00,WSW,240,1.0,10.0,71,0.00,,,-99.99,,2013-03-19 10:13:00,
2013-03-19 06:23:00,37.0,28.0,-100.00,SSW,200,1.0,10.0,69,0.00,,,-99.99,,2013-03-19 10:23:00,
2013-03-19 06:33:00,38.0,30.0,-100.00,West,275,2.0,10.0,71,0.00,,,-99.99,,2013-03-19 10:33:00,
2013-03-19 06:42:00,37.0,28.0,-100.00,West,262,4.0,10.0,69,0.00,,,-99.99,,2013-03-19 10:42:00,
2013-03-19 06:52:00,37.0,30.0,-100.00,West,268,4.0,10.0,73,0.00,,,-99.99,,2013-03-19 10:52:00,
2013-03-19 07:03:00,38.0,30.0,-100.00,NE,38,2.0,10.0,73,0.00,,,-99.99,,2013-03-19 11:03:00,
2013-03-19 07:12:00,37.0,30.0,-100.00,West,272,3.0,10.0,76,0.00,,,-99.99,,2013-03-19 11:12:00,
2013-03-19 07:22:00,36.0,32.0,-100.00,West,268,3.0,10.0,81,0.00,,,-99.99,,2013-03-19 11:22:00,
2013-03-19 07:33:00,36.0,32.0,-100.00,West,265,1.0,10.0,82,0.00,,,-99.99,,2013-03-19 11:33:00,
2013-03-19 07:43:00,37.0,32.0,-100.00,West,278,4.0,10.0,86,2.83,,,-99.99,,2013-03-19 11:43:00,
2013-03-19 07:52:00,37.0,32.0,-100.00,NW,326,4.0,10.0,88,0.00,,,-99.99,,2013-03-19 11:52:00,
2013-03-19 08:02:00,35.0,32.0,-100.00,West,273,7.0,10.0,88,0.00,,,-99.99,,2013-03-19 12:02:00,
2013-03-19 08:12:00,35.0,32.0,-100.00,SW,225,4.0,10.0,86,0.00,,,-99.99,,2013-03-19 12:12:00,
2013-03-19 08:22:00,36.0,32.0,-100.00,ESE,118,4.0,10.0,84,0.00,,,-99.99,,2013-03-19 12:22:00,
2013-03-19 08:33:00,35.0,30.0,-100.00,SW,235,4.0,10.0,80,0.00,,,-99.99,,2013-03-19 12:33:00,
2013-03-19 08:43:00,37.0,32.0,-100.00,WNW,290,5.0,10.0,78,1.14,,,-99.99,,2013-03-19 12:43:00,
2013-03-19 08:52:00,37.0,32.0,-100.00,West,280,6.0,12.0,77,0.00,,,-99.99,,2013-03-19 12:52:00,
2013-03-19 09:02:00,38.0,32.0,-100.00,WNW,300,6.0,12.0,76,0.00,,,-99.99,,2013-03-19 13:02:00,
2013-03-19 09:12:00,35.0,28.0,-100.00,WNW,292,6.0,12.0,76,0.00,,,-99.99,,2013-03-19 13:12:00,
2013-03-19 09:22:00,35.0,28.0,-100.00,West,276,7.0,12.0,73,0.00,,,-99.99,,2013-03-19 13:22:00,
2013-03-19 09:33:00,35.0,28.0,-100.00,WSW,255,6.0,12.0,73,0.00,,,-99.99,,2013-03-19 13:33:00,
2013-03-19 09:42:00,34.0,28.0,-100.00,WNW,290,6.0,12.0,75,0.00,,,-99.99,,2013-03-19 13:42:00,
2013-03-19 09:52:00,36.0,30.0,-100.00,WNW,295,5.0,12.0,76,0.00,,,-99.99,,2013-03-19 13:52:00,
2013-03-19 10:02:00,34.0,27.0,-100.00,WSW,248,9.0,15.0,72,0.00,,,-99.99,,2013-03-19 14:02:00,
2013-03-19 10:12:00,34.0,27.0,-100.00,West,273,10.0,15.0,71,0.00,,,-99.99,,2013-03-19 14:12:00,
2013-03-19 10:22:00,33.0,25.0,-100.00,WNW,289,6.0,15.0,69,0.00,,,-99.99,,2013-03-19 14:22:00,
2013-03-19 10:32:00,35.0,27.0,-100.00,WNW,288,5.0,15.0,69,0.00,,,-99.99,,2013-03-19 14:32:00,
2013-03-19 10:42:00,33.0,25.0,-100.00,West,261,4.0,15.0,66,0.00,,,-99.99,,2013-03-19 14:42:00,
2013-03-19 10:52:00,34.0,25.0,-100.00,WSW,251,9.0,15.0,66,0.00,,,-99.99,,2013-03-19 14:52:00,
2013-03-19 11:02:00,36.0,27.0,-100.00,North,354,6.0,15.0,64,0.00,,,-99.99,,2013-03-19 15:02:00,
2013-03-19 11:12:00,36.0,25.0,-100.00,SSW,206,5.0,15.0,59,0.00,,,-99.99,,2013-03-19 15:12:00,
2013-03-19 11:23:00,35.0,23.0,-100.00,NNW,344,9.0,15.0,58,0.00,,,-99.99,,2013-03-19 15:23:00,
2013-03-19 11:34:00,34.0,21.0,-100.00,WSW,241,5.0,15.0,58,0.00,,,-99.99,,2013-03-19 15:34:00,
2013-03-19 11:44:00,34.0,23.0,-100.00,SSE,152,6.0,15.0,59,0.00,,,-99.99,,2013-03-19 15:44:00,
2013-03-19 11:53:00,34.0,21.0,-100.00,NW,307,4.0,15.0,59,0.00,,,-99.99,,2013-03-19 15:53:00,
2013-03-19 12:04:00,32.0,21.0,-100.00,NW,314,6.0,15.0,63,0.00,,,-99.99,,2013-03-19 16:04:00,
2013-03-19 12:13:00,34.0,25.0,-100.00,WSW,251,6.0,15.0,67,0.00,,,-99.99,,2013-03-19 16:13:00,
2013-03-19 12:24:00,34.0,25.0,-100.00,WNW,285,3.0,15.0,67,0.00,,,-99.99,,2013-03-19 16:24:00,
2013-03-19 12:34:00,33.0,25.0,-100.00,West,280,7.0,15.0,68,0.00,,,-99.99,,2013-03-19 16:34:00,
2013-03-19 12:44:00,32.0,23.0,-100.00,WNW,285,4.0,15.0,68,0.00,,,-99.99,,2013-03-19 16:44:00,
2013-03-19 12:54:00,31.0,23.0,-100.00,WNW,290,7.0,15.0,68,0.00,,,-99.99,,2013-03-19 16:54:00,
2013-03-19 13:03:00,32.0,23.0,-100.00,WSW,258,6.0,15.0,64,0.00,,,-99.99,,2013-03-19 17:03:00,
2013-03-19 13:14:00,32.0,21.0,-100.00,SE,127,6.0,15.0,64,0.00,,,-99.99,,2013-03-19 17:14:00,
2013-03-19 13:24:00,32.0,21.0,-100.00,NNW,334,7.0,15.0,62,0.00,,,-99.99,,2013-03-19 17:24:00,
2013-03-19 13:34:00,34.0,19.0,-100.00,WNW,282,9.0,15.0,54,0.00,,,-99.99,,2013-03-19 17:34:00,
2013-03-19 13:44:00,33.0,21.0,-100.00,West,259,8.0,15.0,58,0.00,,,-99.99,,2013-03-19 17:44:00,
2013-03-19 13:53:00,33.0,21.0,-100.00,WNW,297,6.0,15.0,58,0.00,,,-99.99,,2013-03-19 17:53:00,
2013-03-19 14:03:00,33.0,19.0,-100.00,WNW,296,7.0,15.0,56,0.00,,,-99.99,,2013-03-19 18:03:00,
2013-03-19 14:14:00,33.0,18.0,-100.00,West,265,9.0,15.0,53,0.00,,,-99.99,,2013-03-19 18:14:00,
2013-03-19 14:23:00,33.0,19.0,-100.00,NW,309,6.0,15.0,55,0.00,,,-99.99,,2013-03-19 18:23:00,
2013-03-19 14:34:00,33.0,19.0,-100.00,WSW,252,9.0,15.0,54,0.00,,,-99.99,,2013-03-19 18:34:00,
2013-03-19 14:43:00,33.0,18.0,-100.00,WSW,248,8.0,15.0,51,0.00,,,-99.99,,2013-03-19 18:43:00,
2013-03-19 14:53:00,33.0,19.0,-100.00,WSW,256,9.0,15.0,54,0.00,,,-99.99,,2013-03-19 18:53:00,
2013-03-19 15:03:00,34.0,19.0,-100.00,WSW,255,6.0,15.0,53,0.00,,,-99.99,,2013-03-19 19:03:00,
2013-03-19 15:12:00,33.0,19.0,-100.00,WNW,290,8.0,15.0,54,0.00,,,-99.99,,2013-03-19 19:12:00,
2013-03-19 15:22:00,34.0,19.0,-100.00,WNW,286,6.0,15.0,51,0.00,,,-99.99,,2013-03-19 19:22:00,
2013-03-19 15:33:00,35.0,19.0,-100.00,NW,313,5.0,15.0,53,0.00,,,-99.99,,2013-03-19 19:33:00,
2013-03-19 15:43:00,35.0,18.0,-100.00,WNW,286,8.0,15.0,49,0.00,,,-99.99,,2013-03-19 19:43:00,
2013-03-19 15:52:00,35.0,19.0,-100.00,WNW,290,9.0,15.0,53,0.00,,,-99.99,,2013-03-19 19:52:00,
2013-03-19 16:03:00,34.0,19.0,-100.00,West,272,9.0,15.0,54,0.00,,,-99.99,,2013-03-19 20:03:00,
2013-03-19 16:12:00,35.0,21.0,-100.00,WNW,297,6.0,15.0,54,0.00,,,-99.99,,2013-03-19 20:12:00,
2013-03-19 16:23:00,34.0,19.0,-100.00,WNW,282,7.0,15.0,53,0.00,,,-99.99,,2013-03-19 20:23:00,
2013-03-19 16:33:00,34.0,19.0,-100.00,WSW,252,5.0,15.0,53,0.00,,,-99.99,,2013-03-19 20:33:00,
2013-03-19 16:43:00,35.0,19.0,-100.00,NW,323,9.0,15.0,53,0.00,,,-99.99,,2013-03-19 20:43:00,
2013-03-19 16:52:00,34.0,18.0,-100.00,NW,309,12.0,15.0,49,0.00,,,-99.99,,2013-03-19 20:52:00,
2013-03-19 17:02:00,35.0,19.0,-100.00,WNW,296,11.0,15.0,50,0.00,,,-99.99,,2013-03-19 21:02:00,
2013-03-19 17:12:00,34.0,19.0,-100.00,West,272,8.0,15.0,51,0.00,,,-99.99,,2013-03-19 21:12:00,
2013-03-19 17:23:00,34.0,19.0,-100.00,NW,313,11.0,15.0,53,0.00,,,-99.99,,2013-03-19 21:23:00,
2013-03-19 17:34:00,34.0,19.0,-100.00,West,280,11.0,15.0,50,0.00,,,-99.99,,2013-03-19 21:34:00,
2013-03-19 17:43:00,35.0,19.0,-100.00,NW,314,12.0,15.0,50,0.00,,,-99.99,,2013-03-19 21:43:00,
2013-03-19 17:53:00,35.0,19.0,-100.00,WNW,282,9.0,15.0,49,0.00,,,-99.99,,2013-03-19 21:53:00,
2013-03-19 18:03:00,35.0,18.0,-100.00,WNW,290,9.0,15.0,46,0.00,,,-99.99,,2013-03-19 22:03:00,
2013-03-19 18:13:00,34.0,18.0,-100.00,SW,232,9.0,15.0,49,0.00,,,-99.99,,2013-03-19 22:13:00,
2013-03-19 18:24:00,36.0,18.0,-100.00,WSW,247,10.0,15.0,47,0.00,,,-99.99,,2013-03-19 22:24:00,
2013-03-19 18:33:00,35.0,18.0,-100.00,WNW,289,9.0,15.0,46,0.00,,,-99.99,,2013-03-19 22:33:00,
2013-03-19 18:43:00,35.0,18.0,-100.00,WSW,242,8.0,15.0,47,0.00,,,-99.99,,2013-03-19 22:43:00,
2013-03-19 18:53:00,35.0,18.0,-100.00,West,276,8.0,15.0,47,0.00,,,-99.99,,2013-03-19 22:53:00,
2013-03-19 19:03:00,35.0,18.0,-100.00,NW,304,9.0,15.0,46,0.00,,,-99.99,,2013-03-19 23:03:00,
2013-03-19 19:12:00,35.0,18.0,-100.00,NNW,337,11.0,15.0,46,0.00,,,-99.99,,2013-03-19 23:12:00,
2013-03-19 19:22:00,34.0,18.0,-100.00,WNW,302,12.0,21.0,49,0.00,,,-99.99,,2013-03-19 23:22:00,
2013-03-19 19:33:00,34.0,19.0,-100.00,NW,309,7.0,21.0,51,0.00,,,-99.99,,2013-03-19 23:33:00,
2013-03-19 19:43:00,34.0,19.0,-100.00,WNW,303,5.0,21.0,51,0.00,,,-99.99,,2013-03-19 23:43:00,
2013-03-19 19:52:00,34.0,19.0,-100.00,WNW,297,6.0,21.0,53,0.00,,,-99.99,,2013-03-19 23:52:00,
2013-03-19 20:03:00,33.0,19.0,-100.00,West,272,7.0,21.0,53,0.00,,,-99.99,,2013-03-20 00:03:00,
2013-03-19 20:13:00,33.0,19.0,-100.00,WNW,285,8.0,21.0,55,0.00,,,-99.99,,2013-03-20 00:13:00,
2013-03-19 20:22:00,32.0,18.0,-100.00,NW,319,6.0,21.0,54,0.00,,,-99.99,,2013-03-20 00:22:00,
2013-03-19 20:33:00,32.0,19.0,-100.00,WNW,297,4.0,21.0,55,0.00,,,-99.99,,2013-03-20 00:33:00,
2013-03-19 20:42:00,32.0,19.0,-100.00,NW,316,3.0,21.0,56,0.00,,,-99.99,,2013-03-20 00:42:00,
2013-03-19 20:52:00,31.0,18.0,-100.00,NW,317,6.0,21.0,56,0.00,,,-99.99,,2013-03-20 00:52:00,
2013-03-19 21:03:00,31.0,18.0,-100.00,West,278,5.0,21.0,56,0.00,,,-99.99,,2013-03-20 01:03:00,
2013-03-19 21:12:00,31.0,19.0,-100.00,SW,231,2.0,21.0,58,0.00,,,-99.99,,2013-03-20 01:12:00,
2013-03-19 21:23:00,31.0,19.0,-100.00,SW,214,2.0,21.0,60,0.00,,,-99.99,,2013-03-20 01:23:00,
2013-03-19 21:32:00,31.0,19.0,-100.00,WSW,244,3.0,21.0,59,0.00,,,-99.99,,2013-03-20 01:32:00,
2013-03-19 21:42:00,31.0,19.0,-100.00,West,279,2.0,21.0,59,0.00,,,-99.99,,2013-03-20 01:42:00,
2013-03-19 21:52:00,31.0,19.0,-100.00,West,266,2.0,21.0,60,0.00,,,-99.99,,2013-03-20 01:52:00,
2013-03-19 22:02:00,30.0,19.0,-100.00,WNW,285,2.0,21.0,62,0.00,,,-99.99,,2013-03-20 02:02:00,
2013-03-19 22:12:00,31.0,19.0,-100.00,SSW,206,1.0,21.0,60,0.00,,,-99.99,,2013-03-20 02:12:00,
2013-03-19 22:22:00,30.0,19.0,-100.00,WNW,285,1.0,21.0,60,0.00,,,-99.99,,2013-03-20 02:22:00,
2013-03-19 22:32:00,30.0,19.0,-100.00,SW,235,1.0,21.0,62,0.00,,,-99.99,,2013-03-20 02:32:00,
2013-03-19 22:42:00,31.0,19.0,-100.00,WSW,248,1.0,21.0,62,0.00,,,-99.99,,2013-03-20 02:42:00,
2013-03-19 22:52:00,30.0,19.0,-100.00,SSW,213,1.0,21.0,60,0.00,,,-99.99,,2013-03-20 02:52:00,
2013-03-19 23:02:00,30.0,19.0,-100.00,NW,309,2.0,21.0,62,0.00,,,-99.99,,2013-03-20 03:02:00,
2013-03-19 23:12:00,30.0,18.0,-100.00,West,279,4.0,21.0,58,0.00,,,-99.99,,2013-03-20 03:12:00,
2013-03-19 23:22:00,32.0,19.0,-100.00,NW,323,4.0,21.0,58,0.00,,,-99.99,,2013-03-20 03:22:00,
2013-03-19 23:34:00,30.0,18.0,-100.00,WNW,303,4.0,21.0,56,0.00,,,-99.99,,2013-03-20 03:34:00,
2013-03-19 23:43:00,31.0,19.0,-100.00,NW,310,2.0,21.0,58,0.00,,,-99.99,,2013-03-20 03:43:00,
2013-03-19 23:53:00,31.0,18.0,-100.00,WSW,256,2.0,21.0,56,0.00,,,-99.99,,2013-03-20 03:53:00,